Relevés horaires St-Hubert (Belgique)


Relevés horaires à St-Hubert - Samedi 01 Juin 2019
Heure UTC1 Température [°C] Vent [km/h] Hum. [%] Pres.4 [hPa] Visi. [Km] Nébu. [octa] Préc.5 [mm] Cond.
2m. Res. Ros. Dir.2 Vit. Moy. Raf.3
23:00 15.7 15.7 10.9 S 3.7 3.7 5.6 73 1019.4(-0.6/3h) 45 0/8 -- --
22:00 17.2 17.2 11.5 SSE 1.9 3.7 5.6 69 1019.3(-0.4/3h) 45 0/8 -- --
21:00 16.3 16.3 10.6 S 1.9 3.7 5.6 69 1019.9(-0.2/3h) 50 0/8 -- --
20:00 16.9 16.9 10.5 S 3.7 3.7 3.7 66 1019.8(-0.4/3h) 45 0/8 -- --
19:00 20.9 20.9 12.0 S 1.9 3.7 5.6 57 1018.9(-0.7/3h) 45 0/8 -- --
18:00 22.4 22.4 11.0 S 3.7 5.6 11.1 48 1018.8(-0.9/3h) 45 0/8 0/12h
--
17:00 23.3 23.3 12.5 S 3.7 5.6 7.4 51 1018.8(-1.1/3h) 35 0/8 -- --
16:00 23.5 23.5 12.7 S 3.7 5.6 9.3 51 1019.1(-1.4/3h) 40 0/8 -- --
15:00 23.5 23.5 12.8 S 3.7 5.6 11.1 51 1019.5(-1.4/3h) 35 0/8 -- --
14:00 23.0 23.0 13.1 SSE 3.7 5.6 11.1 54 1020(-1.4/3h) 40 0/8 -- --
13:00 21.9 21.9 8.9 S 3.7 5.6 9.3 43 1021(-0.9/3h) 40 0/8 -- --
12:00 21.8 21.8 12.0 NNO 3.7 5.6 9.3 54 1021.4(-0.7/3h) 35 0/8 0/6h
--
11:00 21.0 21.0 10.9 NNO 3.7 3.7 9.3 52 1022(-0.5/3h) 35 0/8 -- --
10:00 20.0 20.0 10.5 NNO 1.9 5.6 7.4 54 1022.3(0.2/3h) 35 0/8 -- --
10:00 20.0 20.0 10.5 NNO 1.9 5.6 7.4 54 1022.3(0.2/3h) 35 0/8 -- --
09:00 18.9 18.9 11.9 SSO 3.7 3.7 7.4 64 1022.8(-0.2/3h) 25 0/8 -- --
08:00 18.1 18.1 12.0 NNO 1.9 3.7 5.6 68 1023.1(0.1/3h) 35 0/8 -- --
08:00 18.1 18.1 12.0 NNO 1.9 3.7 5.6 68 1023.1(0.1/3h) 35 0/8 -- --
07:00 16.2 16.2 11.0 SO 1.9 3.7 3.7 71 1023.4(0.2/3h) 30 0/8 -- --
07:00 16.2 16.2 11.0 SO 1.9 3.7 3.7 71 1023.4(0.2/3h) 30 0/8 -- --
06:00 15.1 15.1 10.9 SO 1.9 1.9 3.7 76 1023.9(0.3/3h) 30 0/8 0/12h
--
05:00 12.5 12.5 9.7 NNO 0.0 1.9 1.9 83 1024.3(-0.1/3h) 45 0/8 -- --
05:00 12.5 12.5 9.7 NNO 0.0 1.9 1.9 83 1024.3(-0.1/3h) 45 0/8 -- --
04:00 10.9 10.9 8.9 SO 1.9 1.9 3.7 87 1024.4(-0.4/3h) 45 0/8 -- --

1 Coordinated Universal Time. Actuellement il est 10:00 locale et 08:00 UTC.

2 Le vent souffle depuis la direction indiquée vers la direction oposée.

3 Les rafales max. sont disponible 40 min après l'heure du relevé.

4 Pour les stations d'altitude (plus de 600m) le géopotentiel du niveau le plus proche de la pression obligatoire est indiqué.

5 Les stations disposant d'un diffuseur peuvent indiquer "trace". Cela signifie que des précipitations ont touchés le sol mais que la quantité est inférieure à 0.1 mm.

Récapitulatif de la journée
Température [°C] Vent [km/h] Ensoleillement4 [h] Precipitations totale5 [mm] Pression [Hpa]
Min1 Max.2 Moy.3 Max. Min Max.
9.8 23.9 4.1 11.1 0 h 0 min 0 1018.8 1024.4

1 Température minimale relevée entre 18:00 UTC la veille et 18:00 UTC le jour donné.

2 Température maximale relevée entre 06:00 UTC le jour donné et 06:00 UTC le lendemain.

3 Vent moyen de la journée basé sur les relevés horaires.

4 Ensoleillement en heures relevé entre 06:00 UTC la veille et 06:00 UTC le jour donné.

5 Précipitations totales tombées entre 06:00 UTC la jour donné et 06:00 UTC le lendemain.

Graphiques horaires